createdAt,value
2018-06-12T00:01:50.655Z,17.00
2018-06-12T00:04:19.575Z,17.00
2018-06-12T00:06:49.260Z,16.90
2018-06-12T00:09:18.250Z,17.00
2018-06-12T00:11:47.144Z,17.00
2018-06-12T00:14:16.647Z,16.90
2018-06-12T00:16:45.447Z,16.90
2018-06-12T00:19:14.248Z,17.00
2018-06-12T00:21:43.214Z,17.10
2018-06-12T00:24:12.412Z,17.10
2018-06-12T00:26:41.412Z,17.00
2018-06-12T00:29:10.850Z,16.90
2018-06-12T00:31:39.831Z,16.90
2018-06-12T00:34:08.792Z,16.70
2018-06-12T00:36:37.727Z,16.80
2018-06-12T00:39:08.335Z,16.80
2018-06-12T00:41:37.353Z,16.90
2018-06-12T00:44:08.542Z,16.70
2018-06-12T00:46:37.503Z,16.70
2018-06-12T00:49:06.616Z,16.70
2018-06-12T00:51:35.676Z,16.70
2018-06-12T00:56:44.187Z,16.60
2018-06-12T00:59:13.080Z,16.50
2018-06-12T01:01:49.068Z,16.40
2018-06-12T01:06:46.498Z,16.20
2018-06-12T01:09:15.294Z,16.10
2018-06-12T01:11:44.139Z,16.00
2018-06-12T01:14:13.108Z,15.90
2018-06-12T01:16:42.223Z,15.80
2018-06-12T01:19:11.164Z,16.10
2018-06-12T01:21:40.368Z,16.00
2018-06-12T01:24:09.282Z,15.90
2018-06-12T01:26:38.234Z,15.90
2018-06-12T01:29:07.543Z,15.90
2018-06-12T01:31:36.672Z,15.80
2018-06-12T01:36:34.432Z,16.00
2018-06-12T01:39:03.749Z,15.90
2018-06-12T01:41:32.764Z,15.80
2018-06-12T01:44:02.165Z,15.80
2018-06-12T01:46:31.105Z,15.80
2018-06-12T01:49:00.138Z,15.70
2018-06-12T01:53:57.153Z,15.60
2018-06-12T01:56:26.086Z,15.70
2018-06-12T01:58:55.173Z,15.80
2018-06-12T02:01:24.251Z,15.70
2018-06-12T02:03:53.223Z,15.80
2018-06-12T02:06:22.034Z,15.90
2018-06-12T02:08:51.194Z,15.80
2018-06-12T02:11:20.378Z,15.60
2018-06-12T02:13:49.362Z,15.50
2018-06-12T02:18:46.505Z,15.40
2018-06-12T02:21:17.382Z,15.40
2018-06-12T02:23:46.269Z,15.50
2018-06-12T02:26:15.195Z,15.50
2018-06-12T02:28:44.092Z,15.50
2018-06-12T02:31:13.005Z,15.50
2018-06-12T02:33:42.030Z,15.50
2018-06-12T02:36:10.873Z,15.20
2018-06-12T02:38:39.774Z,15.10
2018-06-12T02:41:08.645Z,14.90
2018-06-12T02:43:37.775Z,15.10
2018-06-12T02:46:06.737Z,15.10
2018-06-12T02:48:35.568Z,15.00
2018-06-12T02:51:04.436Z,14.90
2018-06-12T02:53:33.532Z,15.00
2018-06-12T02:56:02.530Z,15.10
2018-06-12T02:58:31.390Z,14.90
2018-06-12T03:01:01.315Z,14.90
2018-06-12T03:03:30.156Z,15.00
2018-06-12T03:05:59.052Z,14.90
2018-06-12T03:08:28.004Z,15.00
2018-06-12T03:10:56.903Z,14.90
2018-06-12T03:13:26.304Z,15.00
2018-06-12T03:15:55.080Z,15.10
2018-06-12T03:18:24.432Z,15.10
2018-06-12T03:20:53.494Z,15.00
2018-06-12T03:23:22.574Z,14.80
2018-06-12T03:25:56.901Z,14.80
2018-06-12T03:28:26.136Z,14.90
2018-06-12T03:30:55.198Z,14.70
2018-06-12T03:33:24.185Z,14.80
2018-06-12T03:35:53.500Z,14.80
2018-06-12T03:40:50.777Z,14.90
2018-06-12T03:43:19.668Z,14.80
2018-06-12T03:45:48.437Z,14.80
2018-06-12T03:48:17.331Z,14.90
2018-06-12T03:50:46.652Z,15.10
2018-06-12T03:55:43.985Z,14.90
2018-06-12T03:58:13.091Z,14.80
2018-06-12T04:00:41.984Z,14.90
2018-06-12T04:03:10.882Z,14.90
2018-06-12T04:05:39.888Z,14.90
2018-06-12T04:08:08.769Z,14.90
2018-06-12T04:10:37.752Z,15.10
2018-06-12T04:13:06.788Z,15.10
2018-06-12T04:15:35.893Z,15.10
2018-06-12T04:18:04.933Z,15.00
2018-06-12T04:20:33.984Z,15.00
2018-06-12T04:23:04.101Z,15.00
2018-06-12T04:25:32.972Z,15.00
2018-06-12T04:30:30.750Z,14.90
2018-06-12T04:35:53.360Z,14.90
2018-06-12T04:38:22.290Z,14.90
2018-06-12T04:40:51.330Z,15.10
2018-06-12T04:43:20.268Z,15.20
2018-06-12T04:45:49.367Z,15.20
2018-06-12T04:48:18.164Z,15.30
2018-06-12T04:50:47.037Z,15.50
2018-06-12T04:53:16.139Z,15.50
2018-06-12T04:55:45.175Z,15.40
2018-06-12T04:58:14.123Z,15.40
2018-06-12T05:00:43.248Z,15.40
2018-06-12T05:05:41.048Z,15.50
2018-06-12T05:08:10.268Z,15.60
2018-06-12T05:10:39.587Z,15.60
2018-06-12T05:13:09.040Z,15.80
2018-06-12T05:15:37.939Z,15.80
2018-06-12T05:18:06.954Z,15.80
2018-06-12T05:20:36.029Z,15.90
2018-06-12T05:25:33.973Z,16.10
2018-06-12T05:28:03.339Z,16.20
2018-06-12T05:30:34.579Z,16.20
2018-06-12T05:33:08.707Z,16.20
2018-06-12T05:35:39.779Z,16.40
2018-06-12T05:38:09.075Z,16.50
2018-06-12T05:40:37.969Z,16.40
2018-06-12T05:43:07.077Z,16.50
2018-06-12T05:45:35.995Z,16.40
2018-06-12T05:48:04.798Z,16.60
2018-06-12T05:50:33.490Z,16.60
2018-06-12T05:53:02.431Z,16.60
2018-06-12T05:55:31.337Z,16.60
2018-06-12T05:58:00.210Z,16.70
2018-06-12T06:00:29.122Z,16.80
2018-06-12T06:02:58.028Z,16.70
2018-06-12T06:05:26.989Z,16.70
2018-06-12T06:07:58.948Z,16.70
2018-06-12T06:10:28.030Z,16.90
2018-06-12T06:12:57.027Z,17.00
2018-06-12T06:15:25.895Z,17.00
2018-06-12T06:17:55.260Z,16.90
2018-06-12T06:20:24.233Z,17.00
2018-06-12T06:22:53.651Z,17.10
2018-06-12T06:25:23.044Z,17.30
2018-06-12T06:27:52.056Z,17.20
2018-06-12T06:30:20.916Z,17.40
2018-06-12T06:32:50.030Z,17.40
2018-06-12T06:35:18.929Z,17.00
2018-06-12T06:37:47.894Z,17.30
2018-06-12T06:40:16.704Z,17.50
2018-06-12T06:42:46.032Z,17.60
2018-06-12T06:45:15.017Z,17.70
2018-06-12T06:47:43.877Z,17.60
2018-06-12T06:50:12.775Z,17.80
2018-06-12T06:52:41.431Z,17.80
2018-06-12T06:55:10.253Z,17.90
2018-06-12T06:57:39.294Z,18.00
2018-06-12T07:00:08.551Z,17.70
2018-06-12T07:02:37.414Z,17.80
2018-06-12T07:05:06.214Z,17.80
2018-06-12T07:07:35.325Z,17.90
2018-06-12T07:10:04.334Z,17.90
2018-06-12T07:12:33.306Z,18.00
2018-06-12T07:15:02.554Z,18.30
2018-06-12T07:17:31.758Z,18.30
2018-06-12T07:20:00.728Z,18.20
2018-06-12T07:22:29.605Z,18.30
2018-06-12T07:24:58.569Z,18.20
2018-06-12T07:27:27.490Z,18.00
2018-06-12T07:29:56.255Z,18.20
2018-06-12T07:32:25.264Z,18.60
2018-06-12T07:34:54.181Z,18.40
2018-06-12T07:37:23.049Z,18.40
2018-06-12T07:39:51.913Z,18.80
2018-06-12T07:42:20.582Z,18.70
2018-06-12T07:44:53.966Z,19.40
2018-06-12T07:47:22.885Z,19.20
2018-06-12T07:49:51.779Z,19.00
2018-06-12T07:52:21.101Z,19.10
2018-06-12T07:54:49.979Z,19.00
2018-06-12T07:57:18.968Z,19.30
2018-06-12T07:59:48.054Z,19.50
2018-06-12T08:02:16.958Z,19.60
2018-06-12T08:04:45.790Z,20.10
2018-06-12T08:07:14.643Z,20.30
2018-06-12T08:09:43.569Z,20.00
2018-06-12T08:14:40.501Z,19.70
2018-06-12T08:17:09.402Z,20.00
2018-06-12T08:19:38.377Z,20.20
2018-06-12T08:22:07.315Z,20.20
2018-06-12T08:24:36.057Z,20.00
2018-06-12T08:27:05.097Z,19.70
2018-06-12T08:29:33.999Z,19.90
2018-06-12T08:32:03.457Z,20.30
2018-06-12T08:34:32.414Z,20.20
2018-06-12T08:37:01.452Z,20.10
2018-06-12T08:39:30.261Z,20.10
2018-06-12T08:41:59.163Z,20.40
2018-06-12T08:44:28.455Z,20.50
2018-06-12T08:46:57.324Z,20.80
2018-06-12T08:49:26.237Z,21.20
2018-06-12T08:51:55.266Z,21.90
2018-06-12T08:54:24.228Z,21.80
2018-06-12T08:56:53.116Z,21.40
2018-06-12T08:59:21.858Z,21.60
2018-06-12T09:01:50.783Z,21.60
2018-06-12T09:04:19.669Z,22.50
2018-06-12T09:06:48.654Z,22.30
2018-06-12T09:09:17.549Z,22.40
2018-06-12T09:11:46.320Z,22.30
2018-06-12T09:14:15.153Z,22.00
2018-06-12T09:16:51.315Z,22.30
2018-06-12T09:19:20.360Z,21.70
2018-06-12T09:21:49.299Z,22.10
2018-06-12T09:24:18.196Z,21.80
2018-06-12T09:26:47.146Z,21.50
2018-06-12T09:29:16.134Z,21.50
2018-06-12T09:31:45.388Z,21.20
2018-06-12T09:36:42.651Z,21.90
2018-06-12T09:39:11.497Z,21.50
2018-06-12T09:41:40.450Z,21.90
2018-06-12T09:44:09.347Z,21.80
2018-06-12T09:46:38.696Z,21.50
2018-06-12T09:49:07.692Z,21.60
2018-06-12T09:51:36.710Z,22.10
2018-06-12T09:54:05.721Z,22.10
2018-06-12T09:56:34.801Z,22.20
2018-06-12T09:59:03.664Z,22.30
2018-06-12T10:01:32.589Z,22.10
2018-06-12T10:04:01.635Z,21.90
2018-06-12T10:06:30.676Z,22.10
2018-06-12T10:08:59.670Z,22.30
2018-06-12T10:11:32.542Z,22.30
2018-06-12T10:14:01.647Z,22.30
2018-06-12T10:16:30.598Z,22.30
2018-06-12T10:18:59.609Z,22.10
2018-06-12T10:21:28.480Z,22.30
2018-06-12T10:23:57.218Z,22.70
2018-06-12T10:26:26.172Z,23.50
2018-06-12T10:28:55.300Z,23.50
2018-06-12T10:31:24.201Z,23.20
2018-06-12T10:33:53.545Z,23.30
2018-06-12T10:36:22.537Z,23.40
2018-06-12T10:38:51.750Z,23.00
2018-06-12T10:41:21.117Z,22.70
2018-06-12T10:43:50.413Z,22.90
2018-06-12T10:46:19.381Z,23.30
2018-06-12T10:48:48.381Z,22.60
2018-06-12T10:51:17.233Z,22.70
2018-06-12T10:53:46.596Z,23.10
2018-06-12T10:56:15.532Z,23.40
2018-06-12T10:58:50.751Z,23.60
2018-06-12T11:01:19.794Z,23.20
2018-06-12T11:03:48.660Z,23.50
2018-06-12T11:06:17.557Z,24.10
2018-06-12T11:08:46.693Z,24.30
2018-06-12T11:11:15.699Z,24.00
2018-06-12T11:13:44.598Z,23.40
2018-06-12T11:16:13.424Z,23.20
2018-06-12T11:18:42.528Z,23.30
2018-06-12T11:21:11.593Z,23.50
2018-06-12T11:23:45.424Z,23.50
2018-06-12T11:26:14.613Z,24.00
2018-06-12T11:28:43.484Z,24.20
2018-06-12T11:31:12.392Z,24.90
2018-06-12T11:33:41.423Z,24.60
2018-06-12T11:36:10.387Z,24.40
2018-06-12T11:38:40.860Z,24.50
2018-06-12T11:41:10.218Z,24.20
2018-06-12T11:43:39.109Z,23.90
2018-06-12T11:46:08.133Z,23.10
2018-06-12T11:48:36.890Z,23.60
2018-06-12T11:51:06.008Z,24.10
2018-06-12T11:53:34.998Z,23.80
2018-06-12T11:56:03.986Z,23.80
2018-06-12T11:58:32.742Z,23.50
2018-06-12T12:01:01.991Z,23.50
2018-06-12T12:03:30.955Z,23.60
2018-06-12T12:06:00.062Z,23.60
2018-06-12T12:08:28.956Z,23.80
2018-06-12T12:10:57.648Z,23.60
2018-06-12T12:13:26.636Z,23.60
2018-06-12T12:15:55.804Z,23.70
2018-06-12T12:18:24.848Z,24.00
2018-06-12T12:20:54.121Z,24.20
2018-06-12T12:23:23.366Z,24.50
2018-06-12T12:25:52.107Z,24.10
2018-06-12T12:28:21.017Z,24.10
2018-06-12T12:33:17.884Z,23.80
2018-06-12T12:35:47.155Z,23.90
2018-06-12T12:38:20.009Z,23.70
2018-06-12T12:40:49.169Z,23.80
2018-06-12T12:43:17.897Z,24.40
2018-06-12T12:45:48.167Z,24.40
2018-06-12T12:50:45.453Z,24.00
2018-06-12T12:53:14.357Z,23.70
2018-06-12T12:55:43.330Z,24.00
2018-06-12T12:58:12.650Z,24.20
2018-06-12T13:00:41.485Z,23.80
2018-06-12T13:03:10.426Z,23.80
2018-06-12T13:05:39.562Z,24.10
2018-06-12T13:08:08.571Z,23.60
2018-06-12T13:10:37.769Z,24.00
2018-06-12T13:13:06.879Z,23.70
2018-06-12T13:15:35.741Z,23.40
2018-06-12T13:18:04.707Z,23.40
2018-06-12T13:20:33.626Z,23.40
2018-06-12T13:23:02.416Z,23.10
2018-06-12T13:25:31.423Z,22.80
2018-06-12T13:28:00.608Z,23.00
2018-06-12T13:30:29.564Z,23.40
2018-06-12T13:32:58.606Z,23.80
2018-06-12T13:35:27.485Z,23.70
2018-06-12T13:37:56.313Z,23.60
2018-06-12T13:40:25.300Z,23.30
2018-06-12T13:42:54.345Z,23.30
2018-06-12T13:45:23.129Z,23.60
2018-06-12T13:47:52.315Z,23.80
2018-06-12T13:50:21.175Z,23.70
2018-06-12T13:52:50.152Z,23.60
2018-06-12T13:55:19.304Z,24.00
2018-06-12T13:57:48.481Z,24.30
2018-06-12T14:00:17.234Z,24.10
2018-06-12T14:02:46.129Z,24.30
2018-06-12T14:05:15.021Z,24.80
2018-06-12T14:07:44.174Z,24.40
2018-06-12T14:10:13.207Z,24.00
2018-06-12T14:12:42.018Z,24.40
2018-06-12T14:15:11.041Z,24.40
2018-06-12T14:17:39.812Z,24.40
2018-06-12T14:20:08.674Z,24.40
2018-06-12T14:22:37.779Z,24.50
2018-06-12T14:25:06.967Z,24.60
2018-06-12T14:27:35.964Z,24.30
2018-06-12T14:30:05.039Z,24.20
2018-06-12T14:32:33.987Z,24.20
2018-06-12T14:35:02.934Z,23.50
2018-06-12T14:37:31.836Z,23.20
2018-06-12T14:40:00.828Z,23.30
2018-06-12T14:42:29.853Z,23.00
2018-06-12T14:45:12.028Z,23.10
2018-06-12T14:47:40.932Z,22.80
2018-06-12T14:50:10.014Z,22.90
2018-06-12T14:52:38.932Z,23.30
2018-06-12T14:55:07.792Z,23.10
2018-06-12T14:57:36.687Z,22.80
2018-06-12T15:00:05.756Z,22.70
2018-06-12T15:02:34.761Z,21.90
2018-06-12T15:05:03.905Z,21.60
2018-06-12T15:07:32.959Z,21.70
2018-06-12T15:10:01.861Z,22.00
2018-06-12T15:12:31.088Z,22.00
2018-06-12T15:15:00.301Z,22.10
2018-06-12T15:17:29.622Z,22.00
2018-06-12T15:19:58.298Z,22.10
2018-06-12T15:22:27.331Z,21.90
2018-06-12T15:24:56.553Z,22.10
2018-06-12T15:27:25.518Z,21.70
2018-06-12T15:29:54.934Z,21.60
2018-06-12T15:32:23.947Z,21.60
2018-06-12T15:34:53.052Z,21.90
2018-06-12T15:37:22.297Z,22.00
2018-06-12T15:39:51.232Z,21.70
2018-06-12T15:42:20.484Z,21.50
2018-06-12T15:44:49.408Z,21.30
2018-06-12T15:47:18.481Z,21.60
2018-06-12T15:49:47.421Z,21.90
2018-06-12T15:52:16.520Z,21.40
2018-06-12T15:54:45.345Z,21.00
2018-06-12T15:57:14.494Z,21.20
2018-06-12T15:59:43.353Z,21.00
2018-06-12T16:02:12.377Z,21.10
2018-06-12T16:04:41.622Z,21.00
2018-06-12T16:07:10.466Z,21.00
2018-06-12T16:09:44.973Z,21.10
2018-06-12T16:12:14.090Z,20.60
2018-06-12T16:17:12.708Z,20.70
2018-06-12T16:19:41.760Z,20.80
2018-06-12T16:22:22.144Z,20.30
2018-06-12T16:24:51.050Z,20.60
2018-06-12T16:27:19.936Z,20.70
2018-06-12T16:32:16.965Z,20.20
2018-06-12T16:34:57.193Z,20.50
2018-06-12T16:37:27.371Z,20.50
2018-06-12T16:39:56.271Z,20.30
2018-06-12T16:42:37.640Z,20.20
2018-06-12T16:45:06.697Z,20.30
2018-06-12T16:47:35.933Z,20.30
2018-06-12T16:50:04.994Z,19.90
2018-06-12T16:52:33.997Z,20.10
2018-06-12T16:55:03.142Z,20.00
2018-06-12T16:57:32.082Z,20.10
2018-06-12T17:00:01.099Z,20.20
2018-06-12T17:02:29.974Z,20.10
2018-06-12T17:04:59.230Z,20.10
2018-06-12T17:07:28.602Z,20.10
2018-06-12T17:10:02.374Z,20.10
2018-06-12T17:12:31.536Z,20.00
2018-06-12T17:15:00.522Z,20.00
2018-06-12T17:17:35.653Z,19.90
2018-06-12T17:20:04.631Z,19.50
2018-06-12T17:22:35.855Z,19.40
2018-06-12T17:25:05.297Z,19.40
2018-06-12T17:27:34.402Z,19.20
2018-06-12T17:30:03.339Z,19.10
2018-06-12T17:32:32.338Z,19.40
2018-06-12T17:35:01.359Z,19.60
2018-06-12T17:37:30.223Z,19.50
2018-06-12T17:40:01.509Z,19.10
2018-06-12T17:42:30.709Z,19.10
2018-06-12T17:44:59.687Z,19.20
2018-06-12T17:47:28.662Z,19.20
2018-06-12T17:49:57.550Z,19.10
2018-06-12T17:52:26.513Z,19.00
2018-06-12T17:54:55.662Z,19.00
2018-06-12T17:57:24.743Z,19.00
2018-06-12T17:59:59.281Z,18.80
2018-06-12T18:02:34.284Z,19.00
2018-06-12T18:05:12.077Z,19.20
2018-06-12T18:07:41.792Z,19.30
2018-06-12T18:10:11.027Z,18.90
2018-06-12T18:12:39.969Z,18.60
2018-06-12T18:15:08.870Z,18.60
2018-06-12T18:17:38.026Z,18.40
2018-06-12T18:20:12.394Z,18.50
2018-06-12T18:22:41.672Z,18.50
2018-06-12T18:25:10.833Z,18.30
2018-06-12T18:27:39.573Z,18.20
2018-06-12T18:30:08.574Z,18.10
2018-06-12T18:32:37.405Z,18.00
2018-06-12T18:35:06.488Z,18.40
2018-06-12T18:37:35.828Z,18.20
2018-06-12T18:40:05.006Z,17.90
2018-06-12T18:42:34.099Z,18.10
2018-06-12T18:45:03.091Z,17.70
2018-06-12T18:47:32.098Z,17.70
2018-06-12T18:50:01.382Z,17.60
2018-06-12T18:54:59.210Z,17.70
2018-06-12T18:57:28.468Z,17.70
2018-06-12T19:04:54.475Z,17.80
2018-06-12T19:07:23.516Z,17.70
2018-06-12T19:09:52.549Z,17.60
2018-06-12T19:12:23.031Z,17.50
2018-06-12T19:17:22.116Z,17.60
2018-06-12T19:19:51.352Z,17.50
2018-06-12T19:22:21.924Z,17.40
2018-06-12T19:24:53.175Z,17.40
2018-06-12T19:27:21.999Z,17.50
2018-06-12T19:29:51.003Z,17.50
2018-06-12T19:32:19.985Z,17.20
2018-06-12T19:34:50.125Z,17.10
2018-06-12T19:37:20.227Z,17.10
2018-06-12T19:39:49.334Z,17.00
2018-06-12T19:42:19.609Z,17.10
2018-06-12T19:44:49.781Z,17.30
2018-06-12T19:47:22.774Z,17.10
2018-06-12T19:52:20.776Z,17.00
2018-06-12T19:54:50.043Z,17.10
2018-06-12T19:57:23.027Z,16.90
2018-06-12T19:59:52.054Z,16.90
2018-06-12T20:02:21.249Z,16.90
2018-06-12T20:09:47.820Z,16.90
2018-06-12T20:12:16.919Z,16.90
2018-06-12T20:14:46.162Z,16.80
2018-06-12T20:17:20.015Z,16.80
2018-06-12T20:19:49.157Z,16.60
2018-06-12T20:22:18.062Z,16.50
2018-06-12T20:24:47.092Z,16.60
2018-06-12T20:29:44.687Z,16.60
2018-06-12T20:32:13.723Z,16.30
2018-06-12T20:34:42.964Z,16.30
2018-06-12T20:37:12.000Z,16.30
2018-06-12T20:39:40.965Z,16.10
2018-06-12T20:42:09.818Z,16.20
2018-06-12T20:44:38.850Z,16.10
2018-06-12T20:47:07.827Z,16.20
2018-06-12T20:49:36.724Z,16.30
2018-06-12T20:52:10.217Z,16.30
2018-06-12T20:54:39.221Z,16.30
2018-06-12T20:57:08.267Z,16.40
2018-06-12T20:59:37.125Z,16.40
2018-06-12T21:02:06.413Z,16.30
2018-06-12T21:04:35.358Z,16.30
2018-06-12T21:07:04.540Z,16.20
2018-06-12T21:09:43.527Z,16.20
2018-06-12T21:12:12.472Z,16.10
2018-06-12T21:14:42.743Z,16.00
2018-06-12T21:19:40.298Z,15.80
2018-06-12T21:22:09.716Z,15.90
2018-06-12T21:24:38.669Z,15.90
2018-06-12T21:27:11.371Z,15.90
2018-06-12T21:29:40.286Z,15.90
2018-06-12T21:32:09.190Z,15.80
2018-06-12T21:34:38.017Z,15.80
2018-06-12T21:37:06.925Z,15.90
2018-06-12T21:39:35.966Z,15.70
2018-06-12T21:42:04.921Z,15.60
2018-06-12T21:44:36.912Z,15.60
2018-06-12T21:49:34.754Z,15.60
2018-06-12T21:52:04.151Z,15.50
2018-06-12T21:54:33.081Z,15.50
2018-06-12T21:59:30.174Z,15.40
2018-06-12T22:01:59.271Z,15.40
2018-06-12T22:04:28.400Z,15.40
2018-06-12T22:06:57.552Z,15.50
2018-06-12T22:09:26.737Z,15.50
2018-06-12T22:11:55.724Z,15.40
2018-06-12T22:14:29.149Z,15.50
2018-06-12T22:16:58.862Z,15.20
2018-06-12T22:19:28.062Z,15.10
2018-06-12T22:21:57.060Z,15.20
2018-06-12T22:24:27.792Z,15.20
2018-06-12T22:26:57.036Z,15.10
2018-06-12T22:29:26.235Z,14.90
2018-06-12T22:31:55.391Z,14.90
2018-06-12T22:34:24.467Z,15.10
2018-06-12T22:36:53.447Z,15.20
2018-06-12T22:41:50.739Z,15.30
2018-06-12T22:44:19.997Z,15.10
2018-06-12T22:46:48.814Z,15.10
2018-06-12T22:49:17.572Z,15.10
2018-06-12T22:51:48.485Z,15.00
2018-06-12T22:54:17.526Z,15.00
2018-06-12T22:56:46.470Z,15.10
2018-06-12T22:59:15.411Z,15.00
2018-06-12T23:01:44.378Z,15.00
2018-06-12T23:04:13.369Z,15.10
2018-06-12T23:06:42.785Z,15.00
2018-06-12T23:09:11.771Z,15.10
2018-06-12T23:11:40.863Z,15.10
2018-06-12T23:14:09.690Z,14.90
2018-06-12T23:16:38.681Z,14.80
2018-06-12T23:19:07.850Z,14.70
2018-06-12T23:21:48.572Z,14.80
2018-06-12T23:24:17.570Z,14.90
2018-06-12T23:26:46.541Z,14.80
2018-06-12T23:29:16.087Z,14.70
2018-06-12T23:31:45.103Z,14.50
2018-06-12T23:34:14.580Z,14.30
2018-06-12T23:36:43.432Z,14.40
2018-06-12T23:41:41.081Z,14.40
2018-06-12T23:44:10.055Z,14.50
2018-06-12T23:46:39.103Z,14.40
2018-06-12T23:49:08.186Z,14.50
2018-06-12T23:51:37.393Z,14.70
2018-06-12T23:54:06.274Z,14.70
2018-06-12T23:59:03.954Z,14.80
